首页
METAR-TAF:

METAR-TAF

机场 :

塔科马 / Fort Lewis, 华盛顿, 美国

纬度: 47-07N, 经度: 122-33W, 海拔: 92米

当前天气观测

该预报发布于24分钟前的22:58 UTC
风速9节,风向西转西北
温度 14°C
湿度 58%
气压 1017 hPa
能見度: 16.1公里
天空无云

METAR: KGRF 262258Z AUTO 29009KT 10SM CLR 14/06 A3003 RMK AO2 SLP174 T01420055 $

时间: 16:22 (23:22 UTC)

预报

该预报发布于2小时和19分钟前的21:03 UTC
预报有效从26日的 21点(UTC)到 28日的 03点(UTC)
风速9节,风向西南
能见度10公里或以上
散云层高于3000英尺
多云层高于8000英尺
成为
从 27日的 00点(UTC)到 27日的 01点(UTC)
风速6节,风向多变
能见度10公里或以上
少量云层高于24000英尺
短暂存在
从 27日的 12点(UTC)到 27日的 15点(UTC)
能見度: 4800
轻雾
成为
从 27日的 16点(UTC)到 27日的 17点(UTC)
风速12节,风向北转东北
能见度10公里或以上
散云层高于15000英尺

TAF: KGRF 262103Z 2621/2803 22009KT 9999 SCT030 BKN080 QNH3001INS BECMG 2700/2701 VRB06KT 9999 FEW240 QNH3000INS TEMPO 2712/2715 4800 BR BECMG 2716/2717 02012KT 9999 SCT150 QNH2999INS TX13/2622Z TN05/2714Z

超过4000个机场的气象观测和天气预报(METAR&TAF报告)。

可查询的气象台以黄色和红色小点在地图上表示。

将鼠标移到小点上方,可查看气象台名称。

然后点击查看天气观测和预报。

如需切换地图:点击带黑十字的绿色按钮放大地图;点击带横线的绿色按钮缩小地图;或者点击绿色箭头查看邻近地区的地图。


METAR-TAF: